sensor_id;sensor_type;location;lat;lon;timestamp;P1;durP1;ratioP1;P2;durP2;ratioP2
64242;SDS011;50573;51.512;5.386;2023-01-20T00:00:24;152.95;;;76.10;;
64242;SDS011;50573;51.512;5.386;2023-01-20T00:10:27;143.57;;;72.87;;
64242;SDS011;50573;51.512;5.386;2023-01-20T00:20:31;162.10;;;77.03;;
64242;SDS011;50573;51.512;5.386;2023-01-20T02:32:04;127.63;;;56.78;;
64242;SDS011;50573;51.512;5.386;2023-01-20T02:42:13;120.28;;;54.33;;
64242;SDS011;50573;51.512;5.386;2023-01-20T02:52:22;117.43;;;52.83;;
64242;SDS011;50573;51.512;5.386;2023-01-20T03:02:28;120.23;;;53.77;;
64242;SDS011;50573;51.512;5.386;2023-01-20T03:12:39;125.60;;;54.90;;
64242;SDS011;50573;51.512;5.386;2023-01-20T03:22:47;137.73;;;56.47;;
64242;SDS011;50573;51.512;5.386;2023-01-20T03:32:52;151.35;;;59.38;;
64242;SDS011;50573;51.512;5.386;2023-01-20T03:42:56;132.17;;;55.67;;
64242;SDS011;50573;51.512;5.386;2023-01-20T03:53:06;143.02;;;60.35;;
64242;SDS011;50573;51.512;5.386;2023-01-20T04:03:18;155.03;;;64.23;;
64242;SDS011;50573;51.512;5.386;2023-01-20T04:13:26;125.13;;;59.80;;
64242;SDS011;50573;51.512;5.386;2023-01-20T04:23:30;140.25;;;61.42;;
64242;SDS011;50573;51.512;5.386;2023-01-20T04:33:38;130.00;;;58.75;;
64242;SDS011;50573;51.512;5.386;2023-01-20T04:43:42;123.50;;;56.70;;
64242;SDS011;50573;51.512;5.386;2023-01-20T04:53:47;118.03;;;55.15;;
64242;SDS011;50573;51.512;5.386;2023-01-20T05:03:50;118.40;;;58.43;;
64242;SDS011;50573;51.512;5.386;2023-01-20T05:13:54;122.43;;;57.97;;
64242;SDS011;50573;51.512;5.386;2023-01-20T05:23:57;122.50;;;58.93;;
64242;SDS011;50573;51.512;5.386;2023-01-20T05:34:01;137.27;;;60.90;;
64242;SDS011;50573;51.512;5.386;2023-01-20T05:44:05;112.00;;;53.27;;
64242;SDS011;50573;51.512;5.386;2023-01-20T05:54:10;106.83;;;50.87;;
64242;SDS011;50573;51.512;5.386;2023-01-20T06:04:13;107.70;;;51.90;;
64242;SDS011;50573;51.512;5.386;2023-01-20T06:14:18;103.60;;;49.87;;
64242;SDS011;50573;51.512;5.386;2023-01-20T06:24:21;97.35;;;48.65;;
64242;SDS011;50573;51.512;5.386;2023-01-20T06:34:28;102.83;;;50.27;;
64242;SDS011;50573;51.512;5.386;2023-01-20T06:44:31;106.85;;;51.95;;
64242;SDS011;50573;51.512;5.386;2023-01-20T06:54:35;106.70;;;51.03;;
64242;SDS011;50573;51.512;5.386;2023-01-20T07:04:38;105.60;;;50.73;;
64242;SDS011;50573;51.512;5.386;2023-01-20T07:14:44;113.03;;;52.93;;
64242;SDS011;50573;51.512;5.386;2023-01-20T07:24:47;117.00;;;54.20;;
64242;SDS011;50573;51.512;5.386;2023-01-20T07:34:53;111.53;;;52.80;;
64242;SDS011;50573;51.512;5.386;2023-01-20T07:44:56;102.57;;;49.67;;
64242;SDS011;50573;51.512;5.386;2023-01-20T07:55:01;110.20;;;51.53;;
64242;SDS011;50573;51.512;5.386;2023-01-20T08:05:04;117.22;;;52.97;;
64242;SDS011;50573;51.512;5.386;2023-01-20T08:15:10;122.35;;;51.97;;
64242;SDS011;50573;51.512;5.386;2023-01-20T08:25:14;116.00;;;52.63;;
64242;SDS011;50573;51.512;5.386;2023-01-20T08:35:19;108.83;;;51.53;;
64242;SDS011;50573;51.512;5.386;2023-01-20T08:45:22;84.57;;;45.33;;
64242;SDS011;50573;51.512;5.386;2023-01-20T08:55:27;81.77;;;43.23;;
64242;SDS011;50573;51.512;5.386;2023-01-20T09:05:34;102.07;;;47.88;;
64242;SDS011;50573;51.512;5.386;2023-01-20T09:15:39;103.00;;;47.80;;
64242;SDS011;50573;51.512;5.386;2023-01-20T09:25:42;103.83;;;48.57;;
64242;SDS011;50573;51.512;5.386;2023-01-20T09:35:46;87.73;;;44.40;;
64242;SDS011;50573;51.512;5.386;2023-01-20T09:45:56;87.30;;;45.77;;
64242;SDS011;50573;51.512;5.386;2023-01-20T09:56:08;106.10;;;46.33;;
64242;SDS011;50573;51.512;5.386;2023-01-20T10:06:18;107.72;;;46.40;;
64242;SDS011;50573;51.512;5.386;2023-01-20T10:16:33;92.53;;;42.63;;
64242;SDS011;50573;51.512;5.386;2023-01-20T10:26:42;78.72;;;36.65;;
64242;SDS011;50573;51.512;5.386;2023-01-20T10:36:54;60.92;;;32.22;;
64242;SDS011;50573;51.512;5.386;2023-01-20T10:47:14;51.97;;;29.63;;
64242;SDS011;50573;51.512;5.386;2023-01-20T10:57:24;49.43;;;28.60;;
64242;SDS011;50573;51.512;5.386;2023-01-20T11:07:27;43.43;;;26.90;;
64242;SDS011;50573;51.512;5.386;2023-01-20T11:17:35;38.73;;;25.97;;
64242;SDS011;50573;51.512;5.386;2023-01-20T11:27:40;41.97;;;27.10;;
64242;SDS011;50573;51.512;5.386;2023-01-20T11:37:46;48.78;;;31.10;;
64242;SDS011;50573;51.512;5.386;2023-01-20T11:47:58;40.23;;;28.43;;
64242;SDS011;50573;51.512;5.386;2023-01-20T11:58:14;36.57;;;26.07;;
64242;SDS011;50573;51.512;5.386;2023-01-20T12:08:20;35.67;;;26.83;;
64242;SDS011;50573;51.512;5.386;2023-01-20T12:18:31;30.93;;;24.97;;
64242;SDS011;50573;51.512;5.386;2023-01-20T12:28:39;34.60;;;27.10;;
64242;SDS011;50573;51.512;5.386;2023-01-20T12:38:55;28.13;;;23.47;;
64242;SDS011;50573;51.512;5.386;2023-01-20T12:49:21;27.83;;;23.67;;
64242;SDS011;50573;51.512;5.386;2023-01-20T12:59:40;37.50;;;29.67;;
64242;SDS011;50573;51.512;5.386;2023-01-20T13:09:55;31.63;;;26.10;;
64242;SDS011;50573;51.512;5.386;2023-01-20T13:20:22;41.40;;;31.30;;
64242;SDS011;50573;51.512;5.386;2023-01-20T13:30:37;54.57;;;39.27;;
64242;SDS011;50573;51.512;5.386;2023-01-20T13:40:49;43.03;;;33.33;;
64242;SDS011;50573;51.512;5.386;2023-01-20T13:51:03;47.65;;;34.28;;
64242;SDS011;50573;51.512;5.386;2023-01-20T14:01:46;58.47;;;40.35;;
64242;SDS011;50573;51.512;5.386;2023-01-20T14:11:50;44.72;;;33.13;;
64242;SDS011;50573;51.512;5.386;2023-01-20T14:21:57;52.03;;;37.10;;
64242;SDS011;50573;51.512;5.386;2023-01-20T14:32:09;67.70;;;42.45;;
64242;SDS011;50573;51.512;5.386;2023-01-20T14:42:24;77.07;;;47.20;;
64242;SDS011;50573;51.512;5.386;2023-01-20T14:52:29;77.28;;;48.13;;
64242;SDS011;50573;51.512;5.386;2023-01-20T15:02:34;68.88;;;44.85;;
64242;SDS011;50573;51.512;5.386;2023-01-20T15:12:49;57.63;;;39.23;;
64242;SDS011;50573;51.512;5.386;2023-01-20T15:22:56;51.57;;;37.47;;
64242;SDS011;50573;51.512;5.386;2023-01-20T15:32:59;49.53;;;35.73;;
64242;SDS011;50573;51.512;5.386;2023-01-20T15:43:04;56.03;;;37.23;;
64242;SDS011;50573;51.512;5.386;2023-01-20T15:53:14;57.22;;;37.78;;
64242;SDS011;50573;51.512;5.386;2023-01-20T16:03:19;82.93;;;52.25;;
64242;SDS011;50573;51.512;5.386;2023-01-20T16:13:22;81.03;;;49.40;;
64242;SDS011;50573;51.512;5.386;2023-01-20T16:23:26;77.03;;;46.50;;
64242;SDS011;50573;51.512;5.386;2023-01-20T16:33:29;65.37;;;41.13;;
64242;SDS011;50573;51.512;5.386;2023-01-20T16:43:34;56.17;;;38.23;;
64242;SDS011;50573;51.512;5.386;2023-01-20T16:53:41;60.55;;;41.13;;
64242;SDS011;50573;51.512;5.386;2023-01-20T17:03:45;46.83;;;34.90;;
64242;SDS011;50573;51.512;5.386;2023-01-20T17:13:48;33.93;;;28.10;;
64242;SDS011;50573;51.512;5.386;2023-01-20T17:23:54;31.20;;;27.80;;
64242;SDS011;50573;51.512;5.386;2023-01-20T17:33:58;24.17;;;21.67;;
64242;SDS011;50573;51.512;5.386;2023-01-20T17:44:04;24.75;;;22.15;;
64242;SDS011;50573;51.512;5.386;2023-01-20T17:54:07;27.92;;;24.52;;
64242;SDS011;50573;51.512;5.386;2023-01-20T18:04:12;31.10;;;27.73;;
64242;SDS011;50573;51.512;5.386;2023-01-20T18:14:15;36.30;;;30.53;;
64242;SDS011;50573;51.512;5.386;2023-01-20T18:24:19;40.23;;;32.73;;
64242;SDS011;50573;51.512;5.386;2023-01-20T18:34:22;41.50;;;33.42;;
64242;SDS011;50573;51.512;5.386;2023-01-20T18:44:27;40.97;;;33.33;;
64242;SDS011;50573;51.512;5.386;2023-01-20T18:54:30;43.43;;;35.00;;
64242;SDS011;50573;51.512;5.386;2023-01-20T19:04:36;45.47;;;36.75;;
64242;SDS011;50573;51.512;5.386;2023-01-20T19:14:39;46.70;;;36.35;;
64242;SDS011;50573;51.512;5.386;2023-01-20T19:24:43;48.83;;;37.40;;
64242;SDS011;50573;51.512;5.386;2023-01-20T19:34:46;48.90;;;37.00;;
64242;SDS011;50573;51.512;5.386;2023-01-20T19:44:50;44.83;;;32.90;;
64242;SDS011;50573;51.512;5.386;2023-01-20T19:54:53;43.80;;;32.45;;
64242;SDS011;50573;51.512;5.386;2023-01-20T20:04:58;46.67;;;33.25;;
64242;SDS011;50573;51.512;5.386;2023-01-20T20:15:01;47.53;;;33.60;;
64242;SDS011;50573;51.512;5.386;2023-01-20T20:25:06;43.93;;;30.33;;
64242;SDS011;50573;51.512;5.386;2023-01-20T20:35:11;41.90;;;31.10;;
64242;SDS011;50573;51.512;5.386;2023-01-20T20:45:16;46.85;;;34.40;;
64242;SDS011;50573;51.512;5.386;2023-01-20T20:55:20;55.58;;;37.72;;
64242;SDS011;50573;51.512;5.386;2023-01-20T21:05:24;61.53;;;40.28;;
64242;SDS011;50573;51.512;5.386;2023-01-20T21:15:27;68.50;;;44.87;;
64242;SDS011;50573;51.512;5.386;2023-01-20T21:25:32;71.17;;;46.20;;
64242;SDS011;50573;51.512;5.386;2023-01-20T21:35:35;77.93;;;49.95;;
64242;SDS011;50573;51.512;5.386;2023-01-20T21:45:40;78.27;;;47.77;;
64242;SDS011;50573;51.512;5.386;2023-01-20T21:55:43;68.60;;;44.70;;
64242;SDS011;50573;51.512;5.386;2023-01-20T22:05:47;68.97;;;45.33;;
64242;SDS011;50573;51.512;5.386;2023-01-20T22:15:50;71.75;;;45.88;;
64242;SDS011;50573;51.512;5.386;2023-01-20T22:25:55;75.63;;;46.33;;
64242;SDS011;50573;51.512;5.386;2023-01-20T22:56:07;75.70;;;49.00;;
64242;SDS011;50573;51.512;5.386;2023-01-20T23:06:13;76.50;;;49.45;;
64242;SDS011;50573;51.512;5.386;2023-01-20T23:16:17;74.30;;;49.37;;
64242;SDS011;50573;51.512;5.386;2023-01-20T23:26:24;74.80;;;49.40;;
64242;SDS011;50573;51.512;5.386;2023-01-20T23:36:29;76.90;;;48.43;;
64242;SDS011;50573;51.512;5.386;2023-01-20T23:46:34;77.97;;;49.43;;
64242;SDS011;50573;51.512;5.386;2023-01-20T23:56:37;80.93;;;52.05;;
